Terminal Aerodrome Forecast
Issued by NWS Grand Forks, ND

Home | Current Version | Previous Version | Text Only | Print | Product List | Glossary Off
Versions: 1 2 3 4 5 6 7 8 9 10 11 12 13 14 15

753
FTUS43 KFGF 281120
TAFFAR
TAF
KFAR 281120Z 2812/2912 36004KT P6SM SCT035
      TEMPO 2812/2816 BKN015
     FM282000 03006KT P6SM FEW140
     FM290600 10004KT P6SM SKC=

USA.gov is the U.S. government's official web portal to all federal, state and local government web resources and services.